sensor_id;sensor_type;location;lat;lon;timestamp;temperature;humidity
9971;DHT22;5026;51.494;11.974;2022-12-08T00:00:47;4.00;99.90
9971;DHT22;5026;51.494;11.974;2022-12-08T00:03:14;4.30;99.90
9971;DHT22;5026;51.494;11.974;2022-12-08T00:05:43;4.10;99.90
9971;DHT22;5026;51.494;11.974;2022-12-08T00:08:29;4.30;99.90
9971;DHT22;5026;51.494;11.974;2022-12-08T00:11:13;3.80;99.90
9971;DHT22;5026;51.494;11.974;2022-12-08T00:13:41;3.80;99.90
9971;DHT22;5026;51.494;11.974;2022-12-08T00:16:08;4.00;99.90
9971;DHT22;5026;51.494;11.974;2022-12-08T00:18:35;3.80;99.90
9971;DHT22;5026;51.494;11.974;2022-12-08T00:21:03;3.90;99.90
9971;DHT22;5026;51.494;11.974;2022-12-08T00:23:31;4.20;99.90
9971;DHT22;5026;51.494;11.974;2022-12-08T00:26:01;3.90;99.90
9971;DHT22;5026;51.494;11.974;2022-12-08T00:28:28;3.80;99.90
9971;DHT22;5026;51.494;11.974;2022-12-08T00:30:55;3.90;99.90
9971;DHT22;5026;51.494;11.974;2022-12-08T00:35:49;3.80;99.90
9971;DHT22;5026;51.494;11.974;2022-12-08T00:38:16;3.90;99.90
9971;DHT22;5026;51.494;11.974;2022-12-08T00:40:45;3.90;99.90
9971;DHT22;5026;51.494;11.974;2022-12-08T00:45:40;2.90;99.90
9971;DHT22;5026;51.494;11.974;2022-12-08T00:48:07;3.80;99.90
9971;DHT22;5026;51.494;11.974;2022-12-08T00:50:34;3.80;99.90
9971;DHT22;5026;51.494;11.974;2022-12-08T00:57:56;3.80;99.90
9971;DHT22;5026;51.494;11.974;2022-12-08T01:00:23;4.80;99.90
9971;DHT22;5026;51.494;11.974;2022-12-08T01:05:17;3.70;99.90
9971;DHT22;5026;51.494;11.974;2022-12-08T01:07:44;3.70;99.90
9971;DHT22;5026;51.494;11.974;2022-12-08T01:10:13;3.70;99.90
9971;DHT22;5026;51.494;11.974;2022-12-08T01:12:40;4.40;99.90
9971;DHT22;5026;51.494;11.974;2022-12-08T01:15:09;3.70;99.90
9971;DHT22;5026;51.494;11.974;2022-12-08T01:17:36;3.70;99.90
9971;DHT22;5026;51.494;11.974;2022-12-08T01:20:04;4.20;99.90
9971;DHT22;5026;51.494;11.974;2022-12-08T01:22:33;3.70;99.90
9971;DHT22;5026;51.494;11.974;2022-12-08T01:25:00;3.70;99.90
9971;DHT22;5026;51.494;11.974;2022-12-08T01:27:27;3.70;99.90
9971;DHT22;5026;51.494;11.974;2022-12-08T01:29:54;4.10;99.90
9971;DHT22;5026;51.494;11.974;2022-12-08T01:32:22;4.30;99.90
9971;DHT22;5026;51.494;11.974;2022-12-08T01:34:49;3.70;99.90
9971;DHT22;5026;51.494;11.974;2022-12-08T01:37:17;3.70;99.90
9971;DHT22;5026;51.494;11.974;2022-12-08T01:39:43;4.00;99.90
9971;DHT22;5026;51.494;11.974;2022-12-08T01:42:18;3.70;99.90
9971;DHT22;5026;51.494;11.974;2022-12-08T01:44:56;3.80;99.90
9971;DHT22;5026;51.494;11.974;2022-12-08T01:47:29;3.70;99.90
9971;DHT22;5026;51.494;11.974;2022-12-08T01:49:57;3.70;99.90
9971;DHT22;5026;51.494;11.974;2022-12-08T01:52:28;3.70;99.90
9971;DHT22;5026;51.494;11.974;2022-12-08T01:54:59;3.60;99.90
9971;DHT22;5026;51.494;11.974;2022-12-08T01:57:28;3.60;99.90
9971;DHT22;5026;51.494;11.974;2022-12-08T02:00:02;4.20;99.90
9971;DHT22;5026;51.494;11.974;2022-12-08T02:02:35;3.60;99.90
9971;DHT22;5026;51.494;11.974;2022-12-08T02:05:05;3.60;99.90
9971;DHT22;5026;51.494;11.974;2022-12-08T02:07:32;3.60;99.90
9971;DHT22;5026;51.494;11.974;2022-12-08T02:10:01;3.70;99.90
9971;DHT22;5026;51.494;11.974;2022-12-08T02:12:29;3.60;99.90
9971;DHT22;5026;51.494;11.974;2022-12-08T02:14:56;3.60;99.90
9971;DHT22;5026;51.494;11.974;2022-12-08T02:17:34;3.80;99.90
9971;DHT22;5026;51.494;11.974;2022-12-08T02:20:29;3.90;99.90
9971;DHT22;5026;51.494;11.974;2022-12-08T02:23:03;3.50;99.90
9971;DHT22;5026;51.494;11.974;2022-12-08T02:25:43;4.60;99.90
9971;DHT22;5026;51.494;11.974;2022-12-08T02:28:32;3.50;99.90
9971;DHT22;5026;51.494;11.974;2022-12-08T02:31:10;3.00;99.90
9971;DHT22;5026;51.494;11.974;2022-12-08T02:34:08;4.10;99.90
9971;DHT22;5026;51.494;11.974;2022-12-08T02:36:46;3.40;99.90
9971;DHT22;5026;51.494;11.974;2022-12-08T02:39:27;3.30;99.90
9971;DHT22;5026;51.494;11.974;2022-12-08T02:42:01;3.30;99.90
9971;DHT22;5026;51.494;11.974;2022-12-08T02:44:37;4.00;99.90
9971;DHT22;5026;51.494;11.974;2022-12-08T02:47:07;4.30;99.90
9971;DHT22;5026;51.494;11.974;2022-12-08T02:49:37;3.30;99.90
9971;DHT22;5026;51.494;11.974;2022-12-08T02:54:52;4.90;99.90
9971;DHT22;5026;51.494;11.974;2022-12-08T02:57:28;4.10;99.90
9971;DHT22;5026;51.494;11.974;2022-12-08T03:00:06;3.20;99.90
9971;DHT22;5026;51.494;11.974;2022-12-08T03:02:49;3.20;99.90
9971;DHT22;5026;51.494;11.974;2022-12-08T03:05:33;3.10;99.90
9971;DHT22;5026;51.494;11.974;2022-12-08T03:08:10;3.20;99.90
9971;DHT22;5026;51.494;11.974;2022-12-08T03:10:42;3.10;99.90
9971;DHT22;5026;51.494;11.974;2022-12-08T03:13:13;3.20;99.90
9971;DHT22;5026;51.494;11.974;2022-12-08T03:15:41;3.20;99.90
9971;DHT22;5026;51.494;11.974;2022-12-08T03:18:11;4.30;99.90
9971;DHT22;5026;51.494;11.974;2022-12-08T03:20:41;3.20;99.90
9971;DHT22;5026;51.494;11.974;2022-12-08T03:23:12;3.30;99.90
9971;DHT22;5026;51.494;11.974;2022-12-08T03:25:48;3.30;99.90
9971;DHT22;5026;51.494;11.974;2022-12-08T03:28:16;3.30;99.90
9971;DHT22;5026;51.494;11.974;2022-12-08T03:30:45;3.30;99.90
9971;DHT22;5026;51.494;11.974;2022-12-08T03:33:16;3.70;99.90
9971;DHT22;5026;51.494;11.974;2022-12-08T03:35:45;3.50;99.90
9971;DHT22;5026;51.494;11.974;2022-12-08T03:38:14;3.30;99.90
9971;DHT22;5026;51.494;11.974;2022-12-08T03:40:42;3.20;99.90
9971;DHT22;5026;51.494;11.974;2022-12-08T03:43:09;3.20;99.90
9971;DHT22;5026;51.494;11.974;2022-12-08T03:45:36;3.20;99.90
9971;DHT22;5026;51.494;11.974;2022-12-08T03:48:03;3.20;99.90
9971;DHT22;5026;51.494;11.974;2022-12-08T03:50:30;3.10;99.90
9971;DHT22;5026;51.494;11.974;2022-12-08T03:52:58;3.10;99.90
9971;DHT22;5026;51.494;11.974;2022-12-08T03:55:25;3.20;99.90
9971;DHT22;5026;51.494;11.974;2022-12-08T03:57:52;3.10;99.90
9971;DHT22;5026;51.494;11.974;2022-12-08T04:00:19;3.10;99.90
9971;DHT22;5026;51.494;11.974;2022-12-08T04:02:46;3.00;99.90
9971;DHT22;5026;51.494;11.974;2022-12-08T04:05:13;3.80;99.90
9971;DHT22;5026;51.494;11.974;2022-12-08T04:07:40;3.10;99.90
9971;DHT22;5026;51.494;11.974;2022-12-08T04:10:10;3.00;99.90
9971;DHT22;5026;51.494;11.974;2022-12-08T04:12:36;3.10;99.90
9971;DHT22;5026;51.494;11.974;2022-12-08T04:15:04;3.10;99.90
9971;DHT22;5026;51.494;11.974;2022-12-08T04:17:31;3.10;99.90
9971;DHT22;5026;51.494;11.974;2022-12-08T04:19:58;3.10;99.90
9971;DHT22;5026;51.494;11.974;2022-12-08T04:22:25;4.10;99.90
9971;DHT22;5026;51.494;11.974;2022-12-08T04:24:52;3.10;99.90
9971;DHT22;5026;51.494;11.974;2022-12-08T04:27:20;3.10;99.90
9971;DHT22;5026;51.494;11.974;2022-12-08T04:29:47;3.20;99.90
9971;DHT22;5026;51.494;11.974;2022-12-08T04:32:14;3.20;99.90
9971;DHT22;5026;51.494;11.974;2022-12-08T04:34:41;3.20;99.90
9971;DHT22;5026;51.494;11.974;2022-12-08T04:37:07;3.80;99.90
9971;DHT22;5026;51.494;11.974;2022-12-08T04:39:34;3.10;99.90
9971;DHT22;5026;51.494;11.974;2022-12-08T04:44:30;3.10;99.90
9971;DHT22;5026;51.494;11.974;2022-12-08T04:46:57;3.00;99.90
9971;DHT22;5026;51.494;11.974;2022-12-08T04:49:23;4.00;99.90
9971;DHT22;5026;51.494;11.974;2022-12-08T04:56:45;2.90;99.90
9971;DHT22;5026;51.494;11.974;2022-12-08T05:01:40;2.90;99.90
9971;DHT22;5026;51.494;11.974;2022-12-08T05:04:07;2.90;99.90
9971;DHT22;5026;51.494;11.974;2022-12-08T05:06:34;2.80;99.90
9971;DHT22;5026;51.494;11.974;2022-12-08T05:09:01;4.00;99.90
9971;DHT22;5026;51.494;11.974;2022-12-08T05:11:28;3.10;99.90
9971;DHT22;5026;51.494;11.974;2022-12-08T05:13:54;3.80;99.90
9971;DHT22;5026;51.494;11.974;2022-12-08T05:16:21;2.60;99.90
9971;DHT22;5026;51.494;11.974;2022-12-08T05:18:50;2.60;99.90
9971;DHT22;5026;51.494;11.974;2022-12-08T05:21:16;3.60;99.90
9971;DHT22;5026;51.494;11.974;2022-12-08T05:23:43;2.50;99.90
9971;DHT22;5026;51.494;11.974;2022-12-08T05:26:10;4.10;99.90
9971;DHT22;5026;51.494;11.974;2022-12-08T05:28:37;2.40;99.90
9971;DHT22;5026;51.494;11.974;2022-12-08T05:31:04;3.70;99.90
9971;DHT22;5026;51.494;11.974;2022-12-08T05:33:31;2.30;99.90
9971;DHT22;5026;51.494;11.974;2022-12-08T05:36:00;2.30;99.90
9971;DHT22;5026;51.494;11.974;2022-12-08T05:38:27;2.30;99.90
9971;DHT22;5026;51.494;11.974;2022-12-08T05:40:53;4.50;99.90
9971;DHT22;5026;51.494;11.974;2022-12-08T05:43:20;2.20;99.90
9971;DHT22;5026;51.494;11.974;2022-12-08T05:45:47;3.20;99.90
9971;DHT22;5026;51.494;11.974;2022-12-08T05:48:15;2.10;99.90
9971;DHT22;5026;51.494;11.974;2022-12-08T05:50:45;2.10;99.90
9971;DHT22;5026;51.494;11.974;2022-12-08T05:53:14;2.20;99.90
9971;DHT22;5026;51.494;11.974;2022-12-08T05:58:11;2.20;99.90
9971;DHT22;5026;51.494;11.974;2022-12-08T06:00:39;2.20;99.90
9971;DHT22;5026;51.494;11.974;2022-12-08T06:03:06;2.20;99.90
9971;DHT22;5026;51.494;11.974;2022-12-08T06:05:33;3.00;99.90
9971;DHT22;5026;51.494;11.974;2022-12-08T06:08:00;2.20;99.90
9971;DHT22;5026;51.494;11.974;2022-12-08T06:10:28;2.70;99.90
9971;DHT22;5026;51.494;11.974;2022-12-08T06:12:55;2.20;99.90
9971;DHT22;5026;51.494;11.974;2022-12-08T06:15:22;3.30;99.90
9971;DHT22;5026;51.494;11.974;2022-12-08T06:17:49;2.10;99.90
9971;DHT22;5026;51.494;11.974;2022-12-08T06:20:16;2.10;99.90
9971;DHT22;5026;51.494;11.974;2022-12-08T06:22:43;2.00;99.90
9971;DHT22;5026;51.494;11.974;2022-12-08T06:25:10;3.10;99.90
9971;DHT22;5026;51.494;11.974;2022-12-08T06:27:38;2.20;99.90
9971;DHT22;5026;51.494;11.974;2022-12-08T06:30:06;2.20;99.90
9971;DHT22;5026;51.494;11.974;2022-12-08T06:32:33;2.20;99.90
9971;DHT22;5026;51.494;11.974;2022-12-08T06:35:01;3.10;99.90
9971;DHT22;5026;51.494;11.974;2022-12-08T06:37:28;2.60;99.90
9971;DHT22;5026;51.494;11.974;2022-12-08T06:39:55;2.20;99.90
9971;DHT22;5026;51.494;11.974;2022-12-08T06:42:22;2.20;99.90
9971;DHT22;5026;51.494;11.974;2022-12-08T06:45:09;2.20;99.90
9971;DHT22;5026;51.494;11.974;2022-12-08T06:47:36;2.20;99.90
9971;DHT22;5026;51.494;11.974;2022-12-08T06:50:04;2.30;99.90
9971;DHT22;5026;51.494;11.974;2022-12-08T06:52:31;2.30;99.90
9971;DHT22;5026;51.494;11.974;2022-12-08T06:54:58;2.70;99.90
9971;DHT22;5026;51.494;11.974;2022-12-08T06:57:25;2.50;99.90
9971;DHT22;5026;51.494;11.974;2022-12-08T06:59:52;2.60;99.90
9971;DHT22;5026;51.494;11.974;2022-12-08T07:02:20;2.70;99.90
9971;DHT22;5026;51.494;11.974;2022-12-08T07:04:47;2.70;99.90
9971;DHT22;5026;51.494;11.974;2022-12-08T07:07:14;2.70;99.90
9971;DHT22;5026;51.494;11.974;2022-12-08T07:09:41;3.90;99.90
9971;DHT22;5026;51.494;11.974;2022-12-08T07:12:08;3.40;99.90
9971;DHT22;5026;51.494;11.974;2022-12-08T07:14:35;2.80;99.90
9971;DHT22;5026;51.494;11.974;2022-12-08T07:17:02;3.10;99.90
9971;DHT22;5026;51.494;11.974;2022-12-08T07:19:30;3.50;99.90
9971;DHT22;5026;51.494;11.974;2022-12-08T07:21:57;3.20;99.90
9971;DHT22;5026;51.494;11.974;2022-12-08T07:24:24;2.70;99.90
9971;DHT22;5026;51.494;11.974;2022-12-08T07:26:51;2.70;99.90
9971;DHT22;5026;51.494;11.974;2022-12-08T07:31:45;2.70;99.90
9971;DHT22;5026;51.494;11.974;2022-12-08T07:36:40;2.80;99.90
9971;DHT22;5026;51.494;11.974;2022-12-08T07:39:07;3.80;99.90
9971;DHT22;5026;51.494;11.974;2022-12-08T07:41:34;3.00;99.90
9971;DHT22;5026;51.494;11.974;2022-12-08T07:44:01;3.10;99.90
9971;DHT22;5026;51.494;11.974;2022-12-08T07:46:29;3.10;99.90
9971;DHT22;5026;51.494;11.974;2022-12-08T07:48:56;3.50;99.90
9971;DHT22;5026;51.494;11.974;2022-12-08T07:51:23;3.20;99.90
9971;DHT22;5026;51.494;11.974;2022-12-08T07:53:52;3.30;99.90
9971;DHT22;5026;51.494;11.974;2022-12-08T07:56:19;5.10;99.90
9971;DHT22;5026;51.494;11.974;2022-12-08T07:58:46;3.50;99.90
9971;DHT22;5026;51.494;11.974;2022-12-08T08:01:21;3.60;99.90
9971;DHT22;5026;51.494;11.974;2022-12-08T08:03:48;4.50;99.90
9971;DHT22;5026;51.494;11.974;2022-12-08T08:06:15;3.80;99.90
9971;DHT22;5026;51.494;11.974;2022-12-08T08:08:42;3.90;99.90
9971;DHT22;5026;51.494;11.974;2022-12-08T08:11:11;4.30;99.90
9971;DHT22;5026;51.494;11.974;2022-12-08T08:13:37;4.10;99.90
9971;DHT22;5026;51.494;11.974;2022-12-08T08:16:05;4.30;99.90
9971;DHT22;5026;51.494;11.974;2022-12-08T08:18:33;4.30;99.90
9971;DHT22;5026;51.494;11.974;2022-12-08T08:21:00;4.70;99.90
9971;DHT22;5026;51.494;11.974;2022-12-08T08:23:27;5.60;99.90
9971;DHT22;5026;51.494;11.974;2022-12-08T08:25:54;4.40;99.90
9971;DHT22;5026;51.494;11.974;2022-12-08T08:28:25;4.30;99.90
9971;DHT22;5026;51.494;11.974;2022-12-08T08:30:52;4.30;99.90
9971;DHT22;5026;51.494;11.974;2022-12-08T08:33:19;4.60;99.90
9971;DHT22;5026;51.494;11.974;2022-12-08T08:35:46;4.40;99.90
9971;DHT22;5026;51.494;11.974;2022-12-08T08:38:13;4.30;99.90
9971;DHT22;5026;51.494;11.974;2022-12-08T08:40:40;4.30;99.90
9971;DHT22;5026;51.494;11.974;2022-12-08T08:43:07;4.40;99.90
9971;DHT22;5026;51.494;11.974;2022-12-08T08:45:55;4.40;99.90
9971;DHT22;5026;51.494;11.974;2022-12-08T08:48:22;4.70;99.90
9971;DHT22;5026;51.494;11.974;2022-12-08T08:50:49;4.50;99.90
9971;DHT22;5026;51.494;11.974;2022-12-08T08:53:16;4.60;99.90
9971;DHT22;5026;51.494;11.974;2022-12-08T08:55:43;4.00;99.90
9971;DHT22;5026;51.494;11.974;2022-12-08T08:58:10;4.60;99.90
9971;DHT22;5026;51.494;11.974;2022-12-08T09:00:37;5.20;99.90
9971;DHT22;5026;51.494;11.974;2022-12-08T09:03:06;4.70;99.90
9971;DHT22;5026;51.494;11.974;2022-12-08T09:05:34;4.70;99.90
9971;DHT22;5026;51.494;11.974;2022-12-08T09:08:03;5.20;99.90
9971;DHT22;5026;51.494;11.974;2022-12-08T09:12:57;4.80;99.90
9971;DHT22;5026;51.494;11.974;2022-12-08T09:15:24;4.70;99.90
9971;DHT22;5026;51.494;11.974;2022-12-08T09:17:51;4.70;99.90
9971;DHT22;5026;51.494;11.974;2022-12-08T09:20:19;4.70;99.90
9971;DHT22;5026;51.494;11.974;2022-12-08T09:22:46;4.70;99.90
9971;DHT22;5026;51.494;11.974;2022-12-08T09:25:13;5.00;99.90
9971;DHT22;5026;51.494;11.974;2022-12-08T09:27:40;4.80;99.90
9971;DHT22;5026;51.494;11.974;2022-12-08T09:30:07;4.90;99.90
9971;DHT22;5026;51.494;11.974;2022-12-08T09:32:34;4.80;99.90
9971;DHT22;5026;51.494;11.974;2022-12-08T09:35:01;5.40;99.90
9971;DHT22;5026;51.494;11.974;2022-12-08T09:37:30;4.80;99.90
9971;DHT22;5026;51.494;11.974;2022-12-08T09:39:57;4.90;99.90
9971;DHT22;5026;51.494;11.974;2022-12-08T09:42:32;4.90;99.90
9971;DHT22;5026;51.494;11.974;2022-12-08T09:45:05;5.00;99.90
9971;DHT22;5026;51.494;11.974;2022-12-08T09:47:36;5.00;99.90
9971;DHT22;5026;51.494;11.974;2022-12-08T09:50:10;5.00;99.90
9971;DHT22;5026;51.494;11.974;2022-12-08T09:52:42;5.00;99.90
9971;DHT22;5026;51.494;11.974;2022-12-08T09:55:14;5.10;99.90
9971;DHT22;5026;51.494;11.974;2022-12-08T09:57:43;5.10;99.90
9971;DHT22;5026;51.494;11.974;2022-12-08T10:00:11;5.20;99.90
9971;DHT22;5026;51.494;11.974;2022-12-08T10:02:39;5.20;99.90
9971;DHT22;5026;51.494;11.974;2022-12-08T10:05:11;5.30;99.90
9971;DHT22;5026;51.494;11.974;2022-12-08T10:07:44;5.40;99.90
9971;DHT22;5026;51.494;11.974;2022-12-08T10:10:21;5.70;99.90
9971;DHT22;5026;51.494;11.974;2022-12-08T10:12:56;5.60;99.90
9971;DHT22;5026;51.494;11.974;2022-12-08T10:15:39;6.20;99.90
9971;DHT22;5026;51.494;11.974;2022-12-08T10:18:12;5.70;99.90
9971;DHT22;5026;51.494;11.974;2022-12-08T10:20:42;5.80;99.90
9971;DHT22;5026;51.494;11.974;2022-12-08T10:23:21;5.80;99.90
9971;DHT22;5026;51.494;11.974;2022-12-08T10:25:54;7.40;99.90
9971;DHT22;5026;51.494;11.974;2022-12-08T10:28:24;6.00;99.90
9971;DHT22;5026;51.494;11.974;2022-12-08T10:30:51;7.50;99.90
9971;DHT22;5026;51.494;11.974;2022-12-08T10:33:20;6.30;99.90
9971;DHT22;5026;51.494;11.974;2022-12-08T10:35:49;6.40;99.90
9971;DHT22;5026;51.494;11.974;2022-12-08T10:38:21;6.50;99.90
9971;DHT22;5026;51.494;11.974;2022-12-08T10:40:50;8.00;99.90
9971;DHT22;5026;51.494;11.974;2022-12-08T10:43:20;6.60;99.90
9971;DHT22;5026;51.494;11.974;2022-12-08T10:45:48;6.60;99.90
9971;DHT22;5026;51.494;11.974;2022-12-08T10:48:17;6.50;99.90
9971;DHT22;5026;51.494;11.974;2022-12-08T10:50:46;6.60;99.90
9971;DHT22;5026;51.494;11.974;2022-12-08T10:53:18;7.50;99.90
9971;DHT22;5026;51.494;11.974;2022-12-08T10:55:48;6.50;99.90
9971;DHT22;5026;51.494;11.974;2022-12-08T10:58:28;6.60;99.90
9971;DHT22;5026;51.494;11.974;2022-12-08T11:00:57;6.60;99.90
9971;DHT22;5026;51.494;11.974;2022-12-08T11:03:28;6.50;99.90
9971;DHT22;5026;51.494;11.974;2022-12-08T11:06:00;6.60;99.90
9971;DHT22;5026;51.494;11.974;2022-12-08T11:08:47;6.70;99.90
9971;DHT22;5026;51.494;11.974;2022-12-08T11:11:16;6.70;99.90
9971;DHT22;5026;51.494;11.974;2022-12-08T11:13:44;6.70;99.90
9971;DHT22;5026;51.494;11.974;2022-12-08T11:16:13;6.70;99.90
9971;DHT22;5026;51.494;11.974;2022-12-08T11:18:43;7.00;99.90
9971;DHT22;5026;51.494;11.974;2022-12-08T11:21:13;6.70;99.90
9971;DHT22;5026;51.494;11.974;2022-12-08T11:23:42;6.70;99.90
9971;DHT22;5026;51.494;11.974;2022-12-08T11:26:19;8.00;99.90
9971;DHT22;5026;51.494;11.974;2022-12-08T11:28:47;8.20;99.90
9971;DHT22;5026;51.494;11.974;2022-12-08T11:31:24;7.40;99.90
9971;DHT22;5026;51.494;11.974;2022-12-08T11:33:53;6.60;99.90
9971;DHT22;5026;51.494;11.974;2022-12-08T11:36:22;6.70;99.90
9971;DHT22;5026;51.494;11.974;2022-12-08T11:38:55;8.40;99.90
9971;DHT22;5026;51.494;11.974;2022-12-08T11:41:28;7.20;99.90
9971;DHT22;5026;51.494;11.974;2022-12-08T11:44:01;6.60;99.90
9971;DHT22;5026;51.494;11.974;2022-12-08T11:46:33;7.10;99.90
9971;DHT22;5026;51.494;11.974;2022-12-08T11:49:04;7.50;99.90
9971;DHT22;5026;51.494;11.974;2022-12-08T11:51:34;7.00;99.90
9971;DHT22;5026;51.494;11.974;2022-12-08T11:54:12;8.60;99.90
9971;DHT22;5026;51.494;11.974;2022-12-08T11:56:47;6.70;99.90
9971;DHT22;5026;51.494;11.974;2022-12-08T11:59:19;6.70;99.90
9971;DHT22;5026;51.494;11.974;2022-12-08T12:01:48;6.70;99.90
9971;DHT22;5026;51.494;11.974;2022-12-08T12:04:20;6.60;99.90
9971;DHT22;5026;51.494;11.974;2022-12-08T12:12:50;6.30;99.90
9971;DHT22;5026;51.494;11.974;2022-12-08T12:15:39;6.20;99.90
9971;DHT22;5026;51.494;11.974;2022-12-08T12:18:17;6.80;99.90
9971;DHT22;5026;51.494;11.974;2022-12-08T12:20:51;6.20;99.90
9971;DHT22;5026;51.494;11.974;2022-12-08T12:23:22;6.40;99.90
9971;DHT22;5026;51.494;11.974;2022-12-08T12:25:53;7.70;99.90
9971;DHT22;5026;51.494;11.974;2022-12-08T12:28:23;6.10;99.90
9971;DHT22;5026;51.494;11.974;2022-12-08T12:30:54;6.10;99.90
9971;DHT22;5026;51.494;11.974;2022-12-08T12:33:23;6.20;99.90
9971;DHT22;5026;51.494;11.974;2022-12-08T12:35:51;6.20;99.90
9971;DHT22;5026;51.494;11.974;2022-12-08T12:38:24;6.30;99.90
9971;DHT22;5026;51.494;11.974;2022-12-08T12:41:11;6.30;99.90
9971;DHT22;5026;51.494;11.974;2022-12-08T12:44:07;6.30;99.90
9971;DHT22;5026;51.494;11.974;2022-12-08T12:46:52;6.30;99.90
9971;DHT22;5026;51.494;11.974;2022-12-08T12:49:51;6.30;99.90
9971;DHT22;5026;51.494;11.974;2022-12-08T12:52:40;5.00;99.90
9971;DHT22;5026;51.494;11.974;2022-12-08T12:55:26;6.20;99.90
9971;DHT22;5026;51.494;11.974;2022-12-08T12:57:55;6.20;99.90
9971;DHT22;5026;51.494;11.974;2022-12-08T13:00:25;6.20;99.90
9971;DHT22;5026;51.494;11.974;2022-12-08T13:02:54;6.20;99.90
9971;DHT22;5026;51.494;11.974;2022-12-08T13:05:23;7.90;99.90
9971;DHT22;5026;51.494;11.974;2022-12-08T13:07:53;7.20;99.90
9971;DHT22;5026;51.494;11.974;2022-12-08T13:10:23;7.80;99.90
9971;DHT22;5026;51.494;11.974;2022-12-08T13:13:04;6.60;99.90
9971;DHT22;5026;51.494;11.974;2022-12-08T13:15:35;6.20;99.90
9971;DHT22;5026;51.494;11.974;2022-12-08T13:18:03;6.20;99.90
9971;DHT22;5026;51.494;11.974;2022-12-08T13:20:39;6.10;99.90
9971;DHT22;5026;51.494;11.974;2022-12-08T13:23:28;7.30;99.90
9971;DHT22;5026;51.494;11.974;2022-12-08T13:26:18;6.10;99.90
9971;DHT22;5026;51.494;11.974;2022-12-08T13:29:20;6.00;99.90
9971;DHT22;5026;51.494;11.974;2022-12-08T13:31:50;6.00;99.90
9971;DHT22;5026;51.494;11.974;2022-12-08T13:34:32;5.90;99.90
9971;DHT22;5026;51.494;11.974;2022-12-08T13:37:16;6.00;99.90
9971;DHT22;5026;51.494;11.974;2022-12-08T13:39:48;6.10;99.90
9971;DHT22;5026;51.494;11.974;2022-12-08T13:42:22;5.90;99.90
9971;DHT22;5026;51.494;11.974;2022-12-08T13:44:54;5.90;99.90
9971;DHT22;5026;51.494;11.974;2022-12-08T13:47:29;6.40;99.90
9971;DHT22;5026;51.494;11.974;2022-12-08T13:50:01;6.00;99.90
9971;DHT22;5026;51.494;11.974;2022-12-08T13:52:32;6.00;99.90
9971;DHT22;5026;51.494;11.974;2022-12-08T13:55:02;5.90;99.90
9971;DHT22;5026;51.494;11.974;2022-12-08T13:57:31;6.30;99.90
9971;DHT22;5026;51.494;11.974;2022-12-08T14:00:00;5.90;99.90
9971;DHT22;5026;51.494;11.974;2022-12-08T14:02:32;5.80;99.90
9971;DHT22;5026;51.494;11.974;2022-12-08T14:05:00;5.80;99.90
9971;DHT22;5026;51.494;11.974;2022-12-08T14:07:27;7.40;99.90
9971;DHT22;5026;51.494;11.974;2022-12-08T14:09:55;5.70;99.90
9971;DHT22;5026;51.494;11.974;2022-12-08T14:12:25;5.60;99.90
9971;DHT22;5026;51.494;11.974;2022-12-08T14:14:56;5.70;99.90
9971;DHT22;5026;51.494;11.974;2022-12-08T14:17:25;5.70;99.90
9971;DHT22;5026;51.494;11.974;2022-12-08T14:19:55;6.70;99.90
9971;DHT22;5026;51.494;11.974;2022-12-08T14:22:23;5.90;99.90
9971;DHT22;5026;51.494;11.974;2022-12-08T14:24:51;5.60;99.90
9971;DHT22;5026;51.494;11.974;2022-12-08T14:27:20;6.80;99.90
9971;DHT22;5026;51.494;11.974;2022-12-08T14:29:49;5.70;99.90
9971;DHT22;5026;51.494;11.974;2022-12-08T14:32:23;5.50;99.90
9971;DHT22;5026;51.494;11.974;2022-12-08T14:34:58;5.60;99.90
9971;DHT22;5026;51.494;11.974;2022-12-08T14:37:27;5.50;99.90
9971;DHT22;5026;51.494;11.974;2022-12-08T14:40:01;6.00;99.90
9971;DHT22;5026;51.494;11.974;2022-12-08T14:42:29;7.20;99.90
9971;DHT22;5026;51.494;11.974;2022-12-08T14:45:00;5.50;99.90
9971;DHT22;5026;51.494;11.974;2022-12-08T14:47:32;5.50;99.90
9971;DHT22;5026;51.494;11.974;2022-12-08T14:50:03;6.30;99.90
9971;DHT22;5026;51.494;11.974;2022-12-08T14:54:58;5.50;99.90
9971;DHT22;5026;51.494;11.974;2022-12-08T14:57:32;5.50;99.90
9971;DHT22;5026;51.494;11.974;2022-12-08T15:00:07;5.50;99.90
9971;DHT22;5026;51.494;11.974;2022-12-08T15:02:44;5.50;99.90
9971;DHT22;5026;51.494;11.974;2022-12-08T15:05:16;3.90;99.90
9971;DHT22;5026;51.494;11.974;2022-12-08T15:07:46;5.50;99.90
9971;DHT22;5026;51.494;11.974;2022-12-08T15:10:35;5.30;99.90
9971;DHT22;5026;51.494;11.974;2022-12-08T15:13:06;5.20;99.90
9971;DHT22;5026;51.494;11.974;2022-12-08T15:15:48;5.10;99.90
9971;DHT22;5026;51.494;11.974;2022-12-08T15:18:17;5.40;99.90
9971;DHT22;5026;51.494;11.974;2022-12-08T15:20:48;4.70;99.90
9971;DHT22;5026;51.494;11.974;2022-12-08T15:23:20;4.50;99.90
9971;DHT22;5026;51.494;11.974;2022-12-08T15:25:48;4.60;99.90
9971;DHT22;5026;51.494;11.974;2022-12-08T15:28:17;4.20;99.90
9971;DHT22;5026;51.494;11.974;2022-12-08T15:30:44;4.20;99.90
9971;DHT22;5026;51.494;11.974;2022-12-08T15:33:11;4.00;99.90
9971;DHT22;5026;51.494;11.974;2022-12-08T15:35:38;4.60;99.90
9971;DHT22;5026;51.494;11.974;2022-12-08T15:38:14;4.00;99.90
9971;DHT22;5026;51.494;11.974;2022-12-08T15:40:42;4.00;99.90
9971;DHT22;5026;51.494;11.974;2022-12-08T15:43:09;3.90;99.90
9971;DHT22;5026;51.494;11.974;2022-12-08T15:48:04;3.60;99.90
9971;DHT22;5026;51.494;11.974;2022-12-08T15:50:31;3.50;99.90
9971;DHT22;5026;51.494;11.974;2022-12-08T15:52:58;3.40;99.90
9971;DHT22;5026;51.494;11.974;2022-12-08T15:55:26;3.50;99.90
9971;DHT22;5026;51.494;11.974;2022-12-08T15:57:54;3.50;99.90
9971;DHT22;5026;51.494;11.974;2022-12-08T16:00:29;3.30;99.90
9971;DHT22;5026;51.494;11.974;2022-12-08T16:02:59;3.40;99.90
9971;DHT22;5026;51.494;11.974;2022-12-08T16:05:28;4.00;99.90
9971;DHT22;5026;51.494;11.974;2022-12-08T16:07:55;3.60;99.90
9971;DHT22;5026;51.494;11.974;2022-12-08T16:10:24;3.70;99.90
9971;DHT22;5026;51.494;11.974;2022-12-08T16:12:52;3.90;99.90
9971;DHT22;5026;51.494;11.974;2022-12-08T16:15:38;3.90;99.90
9971;DHT22;5026;51.494;11.974;2022-12-08T16:18:06;3.70;99.90
9971;DHT22;5026;51.494;11.974;2022-12-08T16:20:33;3.80;99.90
9971;DHT22;5026;51.494;11.974;2022-12-08T16:22:59;3.80;99.90
9971;DHT22;5026;51.494;11.974;2022-12-08T16:25:27;3.80;99.90
9971;DHT22;5026;51.494;11.974;2022-12-08T16:27:55;3.80;99.90
9971;DHT22;5026;51.494;11.974;2022-12-08T16:30:22;5.30;99.90
9971;DHT22;5026;51.494;11.974;2022-12-08T16:32:49;3.80;99.90
9971;DHT22;5026;51.494;11.974;2022-12-08T16:35:16;3.80;99.90
9971;DHT22;5026;51.494;11.974;2022-12-08T16:37:43;3.80;99.90
9971;DHT22;5026;51.494;11.974;2022-12-08T16:40:13;3.80;99.90
9971;DHT22;5026;51.494;11.974;2022-12-08T16:42:40;3.80;99.90
9971;DHT22;5026;51.494;11.974;2022-12-08T16:45:11;3.80;99.90
9971;DHT22;5026;51.494;11.974;2022-12-08T16:47:40;3.80;99.90
9971;DHT22;5026;51.494;11.974;2022-12-08T16:50:09;3.90;99.90
9971;DHT22;5026;51.494;11.974;2022-12-08T16:52:37;3.80;99.90
9971;DHT22;5026;51.494;11.974;2022-12-08T16:55:07;4.00;99.90
9971;DHT22;5026;51.494;11.974;2022-12-08T16:57:34;3.90;99.90
9971;DHT22;5026;51.494;11.974;2022-12-08T17:00:01;4.50;99.90
9971;DHT22;5026;51.494;11.974;2022-12-08T17:02:30;3.90;99.90
9971;DHT22;5026;51.494;11.974;2022-12-08T17:04:57;4.60;99.90
9971;DHT22;5026;51.494;11.974;2022-12-08T17:07:24;4.00;99.90